Time;durP1;ratioP1;P1;durP2;ratioP2;P2;SDS_P1;SDS_P2;PMS_P1;PMS_P2;Temp;Humidity;BMP_temperature;BMP_pressure;BME280_temperature;BME280_humidity;BME280_pressure;Samples;Min_cycle;Max_cycle;Signal;HPM_P1;HPM_P2
2023/11/07 00:02:14;;;;;;;;;5.00;3.25;;;;;12.20;70.31;100356.81;5076878;28;45477;-66
2023/11/07 00:04:41;;;;;;;;;4.00;2.00;;;;;12.24;70.94;100365.44;5059763;28;45346;-66
2023/11/07 00:07:07;;;;;;;;;3.00;3.00;;;;;12.24;70.79;100366.28;5059982;28;45474;-65
2023/11/07 00:09:32;;;;;;;;;4.00;3.00;;;;;12.25;70.44;100373.25;5056503;28;45653;-65
2023/11/07 00:11:59;;;;;;;;;3.00;3.00;;;;;12.27;70.30;100368.78;5061073;28;47999;-65
2023/11/07 00:14:24;;;;;;;;;4.00;3.75;;;;;12.28;70.88;100367.84;5077982;28;45341;-66
2023/11/07 00:16:50;;;;;;;;;2.50;2.50;;;;;12.28;70.54;100367.00;5079336;28;45351;-65
2023/11/07 00:19:15;;;;;;;;;3.50;3.00;;;;;12.28;70.74;100370.47;5075687;28;45552;-66
2023/11/07 00:21:41;;;;;;;;;4.25;3.00;;;;;12.28;70.40;100364.38;5061133;28;48621;-65
2023/11/07 00:24:06;;;;;;;;;4.00;3.00;;;;;12.29;70.53;100366.09;5076309;28;46983;-66
2023/11/07 00:26:33;;;;;;;;;2.00;2.00;;;;;12.28;70.69;100369.63;5078920;28;45520;-65
2023/11/07 00:28:59;;;;;;;;;2.00;2.00;;;;;12.28;70.06;100378.34;5057355;28;45485;-65
2023/11/07 00:31:24;;;;;;;;;3.75;3.00;;;;;12.29;70.26;100372.19;5059059;28;45451;-65
2023/11/07 00:33:50;;;;;;;;;5.00;3.00;;;;;12.31;70.52;100377.38;5057920;28;71979;-65
2023/11/07 00:36:16;;;;;;;;;4.50;2.75;;;;;12.32;70.12;100377.31;5041055;28;65257;-66
2023/11/07 00:38:41;;;;;;;;;1.00;1.00;;;;;12.30;69.97;100373.88;5040265;28;45352;-65
2023/11/07 00:41:07;;;;;;;;;2.25;2.25;;;;;12.31;70.00;100378.22;5060560;28;46356;-65
2023/11/07 00:43:33;;;;;;;;;5.00;3.75;;;;;12.32;70.03;100382.56;5077014;28;45422;-65
2023/11/07 00:45:58;;;;;;;;;4.00;2.75;;;;;12.34;70.29;100390.34;5058040;28;45450;-65
2023/11/07 00:48:24;;;;;;;;;4.50;2.00;;;;;12.35;70.00;100387.66;5036676;28;73428;-65
2023/11/07 00:50:49;;;;;;;;;3.00;2.00;;;;;12.34;70.27;100392.97;5052079;28;46252;-65
2023/11/07 00:53:15;;;;;;;;;3.00;2.25;;;;;12.35;69.69;100390.28;5063078;28;45557;-65
2023/11/07 00:55:40;;;;;;;;;5.00;2.25;;;;;12.38;69.99;100391.97;5074686;28;52818;-65
2023/11/07 00:58:05;;;;;;;;;2.00;2.00;;;;;12.41;69.53;100388.34;5071184;28;69592;-65
2023/11/07 01:00:33;;;;;;;;;4.00;2.25;;;;;12.42;69.99;100392.69;5055721;28;75329;-65
2023/11/07 01:02:59;;;;;;;;;3.75;2.00;;;;;12.43;69.34;100397.88;5075603;28;45318;-65
2023/11/07 01:05:24;;;;;;;;;2.00;2.00;;;;;12.42;69.49;100396.16;5046031;28;45346;-65
2023/11/07 01:07:50;;;;;;;;;2.00;2.00;;;;;12.42;69.15;100400.56;5057521;28;45469;-65
2023/11/07 01:10:15;;;;;;;;;3.00;3.00;;;;;12.41;69.25;100397.09;5071616;28;45416;-65
2023/11/07 01:12:40;;;;;;;;;3.00;1.75;;;;;12.38;69.49;100398.97;5059254;28;65458;-64
2023/11/07 01:15:06;;;;;;;;;2.00;2.00;;;;;12.30;69.13;100399.28;5057949;28;45874;-65
2023/11/07 01:17:32;;;;;;;;;4.75;2.25;;;;;12.32;69.08;100405.31;5077249;28;45268;-65
2023/11/07 01:19:57;;;;;;;;;2.00;2.00;;;;;12.31;69.25;100411.50;5061766;28;46515;-66
2023/11/07 01:22:22;;;;;;;;;1.00;1.00;;;;;12.33;69.32;100415.75;5058928;28;74948;-65
2023/11/07 01:24:48;;;;;;;;;1.75;1.75;;;;;12.31;69.37;100414.97;5062052;28;67251;-65
2023/11/07 01:27:13;;;;;;;;;2.00;1.75;;;;;12.29;69.29;100414.16;5077232;28;61108;-65
2023/11/07 01:29:39;;;;;;;;;1.50;1.50;;;;;12.28;69.07;100424.72;5072550;28;46616;-65
2023/11/07 01:32:05;;;;;;;;;3.25;0.00;;;;;12.25;69.18;100420.47;5076042;28;46034;-65
2023/11/07 01:34:30;;;;;;;;;2.00;1.50;;;;;12.24;68.74;100429.25;5078635;28;45218;-65
2023/11/07 01:36:56;;;;;;;;;2.00;2.00;;;;;12.23;68.80;100435.38;5079366;28;69278;-65
2023/11/07 01:39:21;;;;;;;;;1.00;1.00;;;;;12.23;68.72;100434.53;5060599;28;74528;-65
2023/11/07 01:41:46;;;;;;;;;2.00;1.00;;;;;12.23;68.45;100426.66;5077248;28;45383;-65
2023/11/07 01:44:12;;;;;;;;;2.50;1.00;;;;;12.21;67.97;100428.50;5043830;28;68041;-64
2023/11/07 01:46:38;;;;;;;;;3.75;1.00;;;;;12.19;68.64;100428.56;5080942;28;45652;-64
2023/11/07 01:49:03;;;;;;;;;1.00;0.50;;;;;12.20;68.47;100440.78;5061515;28;75974;-63
2023/11/07 01:51:29;;;;;;;;;2.75;1.00;;;;;12.22;68.32;100435.47;5080657;28;74783;-65
2023/11/07 01:53:55;;;;;;;;;1.75;1.00;;;;;12.23;68.41;100426.66;5063079;28;45381;-64
2023/11/07 01:56:24;;;;;;;;;1.50;1.00;;;;;12.21;68.56;100431.97;5061484;28;45451;-64
2023/11/07 01:58:51;;;;;;;;;1.25;1.00;;;;;12.22;68.40;100435.47;5063021;28;45471;-64
2023/11/07 02:01:16;;;;;;;;;1.00;1.00;;;;;12.20;68.05;100429.41;5037490;28;71141;-64
2023/11/07 02:03:42;;;;;;;;;1.75;1.00;;;;;12.19;68.08;100425.09;5056387;28;45392;-64
2023/11/07 02:06:08;;;;;;;;;0.50;0.50;;;;;12.17;68.02;100440.03;5045921;28;64697;-65
2023/11/07 02:08:33;;;;;;;;;0.00;0.00;;;;;12.17;67.98;100445.28;5072497;28;54931;-64
2023/11/07 02:10:59;;;;;;;;;4.00;1.00;;;;;12.15;68.22;100440.09;5070693;28;45655;-65
2023/11/07 02:13:24;;;;;;;;;1.00;1.00;;;;;12.11;68.11;100438.47;5063205;28;62394;-65
2023/11/07 02:15:49;;;;;;;;;0.00;0.00;;;;;12.09;68.46;100445.56;5062359;28;56426;-64
2023/11/07 02:18:15;;;;;;;;;1.50;1.00;;;;;12.05;68.49;100446.59;5069718;28;57508;-65
2023/11/07 02:20:40;;;;;;;;;1.25;1.00;;;;;11.96;68.33;100451.25;5045912;28;45330;-64
2023/11/07 02:23:09;;;;;;;;;1.00;0.50;;;;;11.97;68.51;100460.00;5079088;28;45476;-64
2023/11/07 02:25:35;;;;;;;;;1.00;1.00;;;;;11.92;68.45;100449.69;5062511;28;45406;-64
2023/11/07 02:28:01;;;;;;;;;0.75;0.00;;;;;11.89;68.40;100469.88;5079802;28;45993;-65
2023/11/07 02:30:26;;;;;;;;;3.75;0.00;;;;;11.84;68.83;100461.31;5074563;28;45549;-64
2023/11/07 02:32:52;;;;;;;;;1.50;1.50;;;;;11.80;68.52;100471.06;5057306;28;45220;-64
2023/11/07 02:35:18;;;;;;;;;1.75;0.00;;;;;11.76;68.79;100466.84;5044400;28;71725;-64
2023/11/07 02:37:46;;;;;;;;;2.25;0.25;;;;;11.70;68.57;100469.69;5048899;28;57144;-63
2023/11/07 02:40:11;;;;;;;;;1.00;1.00;;;;;11.63;68.91;100473.44;5062886;28;45460;-64
2023/11/07 02:42:37;;;;;;;;;3.00;1.25;;;;;11.58;68.82;100463.13;5079669;28;45755;-65
2023/11/07 02:45:03;;;;;;;;;2.50;1.25;;;;;11.55;68.85;100478.97;5062381;28;45490;-64
2023/11/07 02:47:28;;;;;;;;;0.00;0.00;;;;;11.50;68.96;100478.25;5082126;28;45423;-64
2023/11/07 02:49:54;;;;;;;;;0.00;0.00;;;;;11.46;68.81;100482.75;5078016;28;46389;-65
2023/11/07 02:52:20;;;;;;;;;1.50;0.00;;;;;11.44;68.66;100481.06;5062856;28;45305;-65
2023/11/07 02:54:46;;;;;;;;;3.50;1.00;;;;;11.40;68.94;100478.59;5060514;28;45545;-65
2023/11/07 02:57:12;;;;;;;;;0.00;0.00;;;;;11.38;69.38;100483.03;5045190;28;47506;-65
2023/11/07 02:59:37;;;;;;;;;1.00;1.00;;;;;11.35;69.47;100482.25;5079001;28;45327;-65
2023/11/07 03:02:03;;;;;;;;;2.25;0.75;;;;;11.32;69.45;100475.38;5045019;28;45452;-65
2023/11/07 03:04:29;;;;;;;;;0.00;0.00;;;;;11.27;69.15;100472.03;5061332;28;45504;-66
2023/11/07 03:06:54;;;;;;;;;0.50;0.50;;;;;11.24;69.72;100474.75;5080913;28;45614;-65
2023/11/07 03:09:20;;;;;;;;;1.00;1.00;;;;;11.21;69.29;100472.25;5066420;28;73041;-65
2023/11/07 03:11:45;;;;;;;;;0.50;0.25;;;;;11.16;69.19;100467.16;5080638;28;45442;-65
2023/11/07 03:14:10;;;;;;;;;1.25;1.00;;;;;11.13;69.27;100472.50;5075351;28;46708;-65
2023/11/07 03:16:37;;;;;;;;;1.00;1.00;;;;;11.10;69.88;100477.00;5058454;28;46709;-66
2023/11/07 03:19:07;;;;;;;;;0.75;0.75;;;;;11.07;69.76;100477.97;5057837;28;45532;-65
2023/11/07 03:21:32;;;;;;;;;1.50;1.00;;;;;11.04;69.50;100480.66;5079882;28;45450;-66
2023/11/07 03:23:58;;;;;;;;;1.00;1.00;;;;;11.00;69.82;100473.84;5079985;28;47420;-66
2023/11/07 03:26:24;;;;;;;;;2.00;1.00;;;;;10.96;69.84;100477.44;5079284;28;45657;-65
2023/11/07 03:28:49;;;;;;;;;1.00;1.00;;;;;10.91;70.14;100477.59;5060851;28;45572;-66
2023/11/07 03:31:14;;;;;;;;;1.00;1.00;;;;;10.88;69.74;100474.22;5076909;28;65652;-66
2023/11/07 03:33:40;;;;;;;;;2.00;0.00;;;;;10.87;70.03;100482.97;5078257;28;73160;-66
2023/11/07 03:36:05;;;;;;;;;1.50;1.50;;;;;10.85;69.82;100484.78;5079159;28;74745;-66
2023/11/07 03:38:31;;;;;;;;;1.00;1.00;;;;;10.85;69.78;100487.41;5073172;28;45262;-65
2023/11/07 03:40:56;;;;;;;;;1.00;1.00;;;;;10.82;69.92;100485.78;5058750;28;45494;-66
2023/11/07 03:43:22;;;;;;;;;3.50;1.00;;;;;10.85;70.03;100484.78;5073218;28;72998;-65
2023/11/07 03:45:48;;;;;;;;;2.00;1.75;;;;;10.87;70.15;100482.97;5079879;28;45536;-65
2023/11/07 03:48:13;;;;;;;;;1.00;1.00;;;;;10.89;70.37;100484.66;5074970;28;45351;-65
2023/11/07 03:50:39;;;;;;;;;0.75;0.75;;;;;10.90;70.45;100490.75;5078947;28;46146;-66
2023/11/07 03:53:04;;;;;;;;;0.75;0.75;;;;;10.89;69.82;100491.63;5077953;28;45452;-65
2023/11/07 03:55:30;;;;;;;;;1.75;1.00;;;;;10.88;69.78;100492.56;5079161;28;45285;-65
2023/11/07 03:57:55;;;;;;;;;4.00;1.00;;;;;10.87;69.75;100489.09;5077411;28;45243;-65
2023/11/07 04:00:21;;;;;;;;;2.00;1.00;;;;;10.86;70.11;100494.38;5076214;28;56144;-65
2023/11/07 04:02:47;;;;;;;;;1.00;1.00;;;;;10.83;69.66;100490.94;5055271;28;45424;-65
2023/11/07 04:05:12;;;;;;;;;2.00;1.00;;;;;10.81;69.75;100499.75;5063363;28;73927;-64
2023/11/07 04:07:38;;;;;;;;;5.50;1.00;;;;;10.83;69.74;100509.25;5079145;28;45262;-64
2023/11/07 04:10:05;;;;;;;;;2.00;1.00;;;;;10.85;69.68;100509.19;5073626;28;68137;-64
2023/11/07 04:12:33;;;;;;;;;1.75;1.00;;;;;10.88;69.84;100516.13;5060670;28;45592;-64
2023/11/07 04:15:01;;;;;;;;;1.50;1.00;;;;;10.89;69.78;100513.47;5078864;28;46051;-65
2023/11/07 04:17:26;;;;;;;;;2.00;2.00;;;;;10.93;69.84;100515.06;5055463;28;45296;-64
2023/11/07 04:19:52;;;;;;;;;2.00;2.00;;;;;10.94;69.23;100506.31;5055718;28;45474;-65
2023/11/07 04:22:17;;;;;;;;;1.50;1.00;;;;;10.96;69.27;100504.50;5079265;28;47637;-65
2023/11/07 04:24:43;;;;;;;;;4.00;2.00;;;;;10.97;69.60;100516.66;5059209;28;46065;-65
2023/11/07 04:27:09;;;;;;;;;5.75;1.00;;;;;10.97;69.08;100507.97;5072219;28;45379;-64
2023/11/07 04:29:35;;;;;;;;;1.00;1.00;;;;;10.96;69.13;100521.94;5069557;28;45442;-64
2023/11/07 04:32:01;;;;;;;;;1.50;1.00;;;;;10.97;69.23;100524.53;5059295;28;45476;-64
2023/11/07 04:34:27;;;;;;;;;2.50;1.00;;;;;10.95;69.14;100528.97;5077914;28;46013;-65
2023/11/07 04:36:54;;;;;;;;;5.50;3.00;;;;;10.92;69.21;100523.81;5047353;28;45340;-65
2023/11/07 04:39:20;;;;;;;;;3.50;1.25;;;;;10.90;69.49;100535.25;5074580;28;45514;-66
2023/11/07 04:41:45;;;;;;;;;4.00;2.00;;;;;10.87;69.24;100537.97;5078145;28;45244;-66
2023/11/07 04:44:11;;;;;;;;;2.75;2.75;;;;;10.81;69.42;100534.63;5076706;28;63911;-66
2023/11/07 04:46:38;;;;;;;;;3.75;2.00;;;;;10.76;69.66;100543.53;5059423;28;45534;-65
2023/11/07 04:49:06;;;;;;;;;2.50;2.00;;;;;10.71;69.56;100534.97;5068805;28;45509;-66
2023/11/07 04:51:32;;;;;;;;;4.75;2.75;;;;;10.69;69.30;100545.47;5078459;28;45493;-65
2023/11/07 04:53:57;;;;;;;;;4.25;3.00;;;;;10.63;69.39;100541.28;5061031;28;45487;-65
2023/11/07 04:56:23;;;;;;;;;1.75;1.00;;;;;10.59;70.01;100538.81;5060110;28;52498;-66
2023/11/07 04:58:49;;;;;;;;;3.25;1.75;;;;;10.56;69.85;100545.00;5041799;28;45489;-66
2023/11/07 05:01:15;;;;;;;;;2.50;1.75;;;;;10.51;69.71;100552.13;5043740;28;45554;-66
2023/11/07 05:03:41;;;;;;;;;6.75;3.00;;;;;10.50;70.05;100555.66;5059907;28;46088;-65
2023/11/07 05:06:07;;;;;;;;;2.00;2.00;;;;;10.47;69.88;100563.59;5075611;28;45473;-65
2023/11/07 05:08:33;;;;;;;;;2.50;2.50;;;;;10.45;69.84;100555.78;5054125;28;45484;-65
2023/11/07 05:10:58;;;;;;;;;5.00;2.00;;;;;10.43;69.38;100552.34;5060316;28;45641;-65
2023/11/07 05:13:23;;;;;;;;;2.75;2.75;;;;;10.43;70.00;100559.34;5062547;28;75533;-65
2023/11/07 05:15:49;;;;;;;;;1.75;1.75;;;;;10.40;70.07;100557.66;5056175;28;45809;-65
2023/11/07 05:18:15;;;;;;;;;6.00;2.00;;;;;10.40;69.63;100562.91;5073705;28;45572;-66
2023/11/07 05:20:42;;;;;;;;;4.00;2.00;;;;;10.40;69.71;100570.75;5060771;28;45468;-66
2023/11/07 05:23:08;;;;;;;;;5.00;2.00;;;;;10.38;69.80;100567.31;5074764;28;45316;-66
2023/11/07 05:25:35;;;;;;;;;6.00;3.00;;;;;10.38;69.70;100569.94;5082291;28;45150;-64
2023/11/07 05:28:06;;;;;;;;;2.50;2.00;;;;;10.37;70.25;100578.69;5046088;28;45581;-65
2023/11/07 05:30:32;;;;;;;;;2.50;2.00;;;;;10.34;70.14;100570.06;5063735;28;45807;-64
2023/11/07 05:32:57;;;;;;;;;4.00;4.00;;;;;10.32;70.12;100572.72;5080446;28;46057;-64
2023/11/07 05:35:23;;;;;;;;;2.75;2.75;;;;;10.30;70.25;100579.72;5076278;28;71665;-65
2023/11/07 05:37:48;;;;;;;;;2.25;2.25;;;;;10.30;70.13;100576.25;5083985;28;45784;-65
2023/11/07 05:40:15;;;;;;;;;4.25;3.00;;;;;10.27;69.87;100582.44;5065208;28;45593;-65
2023/11/07 05:42:41;;;;;;;;;4.00;2.00;;;;;10.25;70.06;100589.44;5064330;28;46269;-64
2023/11/07 05:45:10;;;;;;;;;4.25;2.25;;;;;10.23;70.06;100596.50;5078181;28;45457;-65
2023/11/07 05:47:36;;;;;;;;;4.50;1.50;;;;;10.20;70.26;100601.81;5063026;28;45472;-65
2023/11/07 05:50:05;;;;;;;;;5.25;2.75;;;;;10.20;70.14;100599.22;5061017;28;45620;-65
2023/11/07 05:52:32;;;;;;;;;3.00;2.25;;;;;10.19;69.85;100602.72;5054631;28;47438;-65
2023/11/07 05:54:58;;;;;;;;;2.50;0.75;;;;;10.20;70.30;100602.69;5072055;28;45344;-64
2023/11/07 05:57:25;;;;;;;;;2.75;2.00;;;;;10.19;70.48;100600.94;5057190;28;45348;-64
2023/11/07 05:59:50;;;;;;;;;1.50;1.50;;;;;10.20;70.26;100604.44;5061173;28;45485;-65
2023/11/07 06:02:15;;;;;;;;;3.25;2.00;;;;;10.21;69.79;100611.38;5057374;28;74578;-65
2023/11/07 06:04:41;;;;;;;;;3.50;3.00;;;;;10.24;70.06;100609.53;5077586;28;57748;-65
2023/11/07 06:07:07;;;;;;;;;3.00;2.00;;;;;10.25;69.91;100606.03;5060817;28;45585;-65
2023/11/07 06:09:32;;;;;;;;;4.75;3.75;;;;;10.21;70.02;100609.59;5054162;28;69025;-66
2023/11/07 06:11:57;;;;;;;;;2.00;2.00;;;;;10.22;69.83;100605.25;5059929;28;45346;-66
2023/11/07 06:14:24;;;;;;;;;2.00;2.00;;;;;10.20;69.55;100613.13;5074768;28;45329;-66
2023/11/07 06:16:52;;;;;;;;;3.00;2.75;;;;;10.17;69.69;100602.75;5038763;28;45411;-65
2023/11/07 06:19:18;;;;;;;;;3.25;1.75;;;;;10.18;69.96;100609.72;5073196;28;45227;-65
2023/11/07 06:21:43;;;;;;;;;6.25;2.00;;;;;10.18;69.57;100612.31;5077564;28;46459;-65
2023/11/07 06:24:09;;;;;;;;;4.50;3.00;;;;;10.19;69.47;100624.47;5054547;28;45572;-65
2023/11/07 06:26:34;;;;;;;;;4.75;3.75;;;;;10.23;69.58;100617.41;5078133;28;52092;-66
2023/11/07 06:28:59;;;;;;;;;6.50;3.00;;;;;10.20;69.68;100620.97;5075063;28;45414;-64
2023/11/07 06:31:26;;;;;;;;;4.25;2.00;;;;;10.27;69.37;100638.22;5060316;28;46546;-62
2023/11/07 06:33:52;;;;;;;;;5.00;1.00;;;;;10.31;69.42;100633.78;5074250;28;46039;-62
2023/11/07 06:36:17;;;;;;;;;6.75;4.00;;;;;10.35;69.50;100632.78;5079596;28;45348;-65
2023/11/07 06:38:43;;;;;;;;;7.00;3.00;;;;;10.38;69.52;100624.03;5076962;28;45497;-65
2023/11/07 06:41:08;;;;;;;;;4.25;2.00;;;;;10.44;69.32;100636.91;5039374;28;1128151;-65
2023/11/07 06:43:35;;;;;;;;;6.25;4.25;;;;;10.45;68.96;100642.13;5078211;28;45592;-67
2023/11/07 06:46:01;;;;;;;;;3.00;2.25;;;;;10.49;68.97;100639.41;5045167;28;45333;-63
2023/11/07 06:48:28;;;;;;;;;4.25;3.00;;;;;10.49;69.01;100647.28;5077164;28;45597;-63
2023/11/07 06:50:54;;;;;;;;;4.25;4.00;;;;;10.50;68.86;100647.22;5077169;28;46797;-63
2023/11/07 06:53:19;;;;;;;;;64.00;48.00;;;;;10.53;68.62;100660.19;5078205;28;45366;-62
2023/11/07 06:55:45;;;;;;;;;14.75;8.75;;;;;10.51;68.32;100648.06;5072297;28;45347;-63
2023/11/07 06:58:10;;;;;;;;;4.25;3.50;;;;;10.52;67.96;100653.28;5058642;28;66925;-63
2023/11/07 07:00:38;;;;;;;;;3.00;3.00;;;;;10.53;68.48;100668.06;5077995;28;45958;-64
2023/11/07 07:03:04;;;;;;;;;4.75;3.75;;;;;10.53;68.66;100662.81;5078010;28;45416;-67
2023/11/07 07:05:30;;;;;;;;;2.50;2.00;;;;;10.56;68.41;100669.75;5070387;28;45651;-65
2023/11/07 07:07:55;;;;;;;;;4.25;2.00;;;;;10.58;68.16;100687.09;5060361;28;71771;-64
2023/11/07 07:10:21;;;;;;;;;4.00;3.50;;;;;10.61;68.58;100679.16;5078566;28;45443;-65
2023/11/07 07:12:47;;;;;;;;;3.25;2.50;;;;;10.60;68.21;100680.06;5059807;28;45410;-66
2023/11/07 07:15:12;;;;;;;;;4.50;2.75;;;;;10.60;67.78;100676.59;5057667;28;45511;-64
2023/11/07 07:17:37;;;;;;;;;3.25;2.00;;;;;10.58;67.86;100687.09;5081265;28;45549;-63
2023/11/07 07:20:11;;;;;;;;;3.75;2.25;;;;;10.55;67.40;100675.88;5078964;28;76506;-67
2023/11/07 07:22:46;;;;;;;;;7.25;2.25;;;;;10.51;67.94;100689.94;5061224;28;45790;-66
2023/11/07 07:25:15;;;;;;;;;3.00;3.00;;;;;10.51;67.80;100690.78;5062702;28;45482;-66
2023/11/07 07:27:45;;;;;;;;;5.75;3.00;;;;;10.53;68.13;100698.59;5075841;28;45354;-64
2023/11/07 07:30:20;;;;;;;;;6.00;3.75;;;;;10.53;67.81;100702.06;5060291;28;46193;-63
2023/11/07 07:32:46;;;;;;;;;6.50;4.00;;;;;10.53;68.09;100695.97;5075178;28;45457;-63
2023/11/07 07:35:15;;;;;;;;;8.25;4.00;;;;;10.57;68.10;100701.09;5078981;28;45264;-63
2023/11/07 07:37:41;;;;;;;;;5.75;4.00;;;;;10.59;67.82;100695.84;5063558;28;45512;-63
2023/11/07 07:40:09;;;;;;;;;3.25;2.50;;;;;10.62;67.99;100709.69;5080144;28;46589;-63
2023/11/07 07:42:35;;;;;;;;;5.50;3.00;;;;;10.66;67.58;100712.19;5074858;28;45486;-63
2023/11/07 07:45:04;;;;;;;;;3.75;3.75;;;;;10.69;67.95;100712.97;5078384;28;45414;-64
2023/11/07 07:47:29;;;;;;;;;4.00;2.00;;;;;10.74;67.32;100718.94;5054523;28;45649;-64
2023/11/07 07:49:55;;;;;;;;;3.75;3.00;;;;;10.79;67.62;100724.91;5064710;28;46120;-67
2023/11/07 07:52:22;;;;;;;;;4.00;4.00;;;;;10.80;67.04;100720.53;5075433;28;45357;-65
2023/11/07 07:54:48;;;;;;;;;5.25;3.50;;;;;10.81;67.14;100738.81;5065736;28;45379;-68
2023/11/07 07:57:17;;;;;;;;;5.00;3.00;;;;;10.83;66.91;100729.16;5058585;28;45250;-66
2023/11/07 07:59:42;;;;;;;;;3.75;3.00;;;;;10.89;67.02;100735.13;5074666;28;45555;-64
2023/11/07 08:02:08;;;;;;;;;3.50;2.00;;;;;10.89;66.62;100732.50;5076489;28;45307;-66
2023/11/07 08:04:34;;;;;;;;;4.50;2.75;;;;;10.92;67.09;100735.03;5075941;28;45433;-65
2023/11/07 08:06:59;;;;;;;;;4.75;3.00;;;;;10.91;66.21;100723.72;5058529;28;45387;-63
2023/11/07 08:09:26;;;;;;;;;13.25;7.75;;;;;10.94;66.55;100741.09;5050292;28;46218;-63
2023/11/07 08:11:56;;;;;;;;;5.00;4.00;;;;;10.96;65.95;100744.50;5059013;28;45822;-63
2023/11/07 08:14:24;;;;;;;;;3.75;3.00;;;;;10.95;65.60;100751.50;5072529;28;45414;-63
2023/11/07 08:16:50;;;;;;;;;7.00;4.50;;;;;10.95;65.53;100751.50;5059288;28;45519;-63
2023/11/07 08:19:17;;;;;;;;;3.75;3.25;;;;;10.92;65.87;100745.50;5049322;28;45531;-66
2023/11/07 08:21:43;;;;;;;;;5.25;4.00;;;;;10.94;66.12;100754.16;5060143;28;45812;-66
2023/11/07 08:24:08;;;;;;;;;5.00;2.75;;;;;10.94;65.85;100754.16;5072169;28;45450;-67
2023/11/07 08:26:35;;;;;;;;;4.00;2.75;;;;;10.94;65.78;100754.16;5059994;28;45273;-66
2023/11/07 08:29:06;;;;;;;;;5.50;2.75;;;;;10.92;65.73;100748.97;5053793;28;46289;-69
2023/11/07 08:31:39;;;;;;;;;3.25;3.00;;;;;10.96;65.96;100758.47;5043843;28;45539;-68
2023/11/07 08:34:09;;;;;;;;;4.00;4.00;;;;;10.98;65.98;100748.81;5044247;28;45429;-67
2023/11/07 08:36:34;;;;;;;;;4.00;4.00;;;;;11.04;65.58;100757.41;5045549;28;45461;-68
2023/11/07 08:38:59;;;;;;;;;6.75;3.75;;;;;10.99;66.13;100755.75;5062833;28;45525;-67
2023/11/07 08:41:25;;;;;;;;;5.00;4.00;;;;;10.99;66.15;100761.00;5051433;28;77462;-66
2023/11/07 08:43:51;;;;;;;;;5.00;3.25;;;;;10.98;66.21;100761.91;5077197;28;45467;-66
2023/11/07 08:46:19;;;;;;;;;3.75;3.00;;;;;10.96;66.17;100768.06;5053531;28;45261;-67
2023/11/07 08:48:44;;;;;;;;;7.00;5.00;;;;;10.93;66.23;100762.94;5053261;28;46923;-67
2023/11/07 08:51:10;;;;;;;;;30.75;21.25;;;;;10.94;66.21;100765.53;5048362;28;45625;-68
2023/11/07 08:53:35;;;;;;;;;4.50;3.50;;;;;10.93;66.17;100776.88;5078032;28;45719;-63
2023/11/07 08:56:00;;;;;;;;;2.00;2.00;;;;;10.92;66.10;100776.94;5039572;28;72251;-65
2023/11/07 08:58:28;;;;;;;;;8.50;4.00;;;;;10.89;66.28;100785.75;5075313;28;75688;-65
2023/11/07 09:00:57;;;;;;;;;5.00;4.00;;;;;10.86;66.26;100770.09;5072480;28;45527;-64
2023/11/07 09:03:22;;;;;;;;;7.50;5.00;;;;;10.89;66.40;100780.50;5028996;28;45369;-64
2023/11/07 09:05:47;;;;;;;;;4.25;3.00;;;;;10.94;66.23;100782.97;5064423;28;45376;-62
2023/11/07 09:08:13;;;;;;;;;3.75;3.75;;;;;10.96;65.94;100789.03;5079231;28;50594;-62
2023/11/07 09:10:38;;;;;;;;;4.75;3.75;;;;;10.97;66.17;100791.59;5061764;28;45252;-62
2023/11/07 09:13:03;;;;;;;;;7.00;3.25;;;;;11.01;66.13;100797.63;5077773;28;57339;-62
2023/11/07 09:15:29;;;;;;;;;5.00;3.75;;;;;11.02;65.89;100800.19;5070547;28;69698;-63
2023/11/07 09:17:54;;;;;;;;;5.50;2.50;;;;;11.04;65.50;100796.69;5078763;28;75594;-63
2023/11/07 09:20:19;;;;;;;;;3.00;3.00;;;;;11.09;65.45;100800.03;5047090;28;45285;-63
2023/11/07 09:22:46;;;;;;;;;6.00;4.00;;;;;11.14;65.73;100806.84;5069972;28;67703;-62
2023/11/07 09:25:11;;;;;;;;;5.75;4.25;;;;;11.22;65.55;100809.25;5070888;28;45565;-62
2023/11/07 09:27:37;;;;;;;;;6.00;3.50;;;;;11.26;65.30;100804.78;5078989;28;52157;-63
2023/11/07 09:30:10;;;;;;;;;4.50;2.75;;;;;11.26;65.17;100804.78;5078911;28;45371;-62
2023/11/07 09:32:37;;;;;;;;;5.00;5.00;;;;;11.28;64.92;100808.22;5061636;28;45430;-62
2023/11/07 09:35:04;;;;;;;;;6.25;3.75;;;;;11.29;65.05;100807.31;5054012;28;45608;-62
2023/11/07 09:37:29;;;;;;;;;4.25;2.00;;;;;11.32;64.72;100809.84;5064494;28;46227;-62
2023/11/07 09:39:55;;;;;;;;;10.25;4.00;;;;;11.37;64.96;100808.81;5070834;28;73143;-62
2023/11/07 09:42:20;;;;;;;;;7.00;3.50;;;;;11.42;64.98;100807.81;5075664;27;45405;-62
2023/11/07 09:44:48;;;;;;;;;4.00;2.00;;;;;11.47;64.46;100812.00;5079686;28;45215;-62
2023/11/07 09:47:14;;;;;;;;;4.00;2.00;;;;;11.49;64.44;100814.59;5067252;28;46377;-62
2023/11/07 09:49:39;;;;;;;;;4.50;2.00;;;;;11.52;64.40;100817.97;5078878;28;57856;-62
2023/11/07 09:52:06;;;;;;;;;3.50;3.00;;;;;11.57;64.38;100828.34;5059819;28;45372;-62
2023/11/07 09:54:33;;;;;;;;;6.00;4.00;;;;;11.59;64.08;100823.91;5061249;28;45652;-62
2023/11/07 09:57:08;;;;;;;;;4.75;4.00;;;;;11.64;63.64;100834.25;5064828;28;46140;-63
2023/11/07 09:59:41;;;;;;;;;7.50;4.00;;;;;11.73;63.76;100829.59;5056430;28;45712;-63
2023/11/07 10:02:07;;;;;;;;;4.00;3.00;;;;;11.83;62.90;100838.03;5057544;28;45414;-63
2023/11/07 10:04:36;;;;;;;;;6.00;2.50;;;;;11.90;63.28;100841.34;5074675;28;73293;-63
2023/11/07 10:07:02;;;;;;;;;7.50;2.00;;;;;11.95;63.04;100840.31;5059819;28;45387;-63
2023/11/07 10:09:29;;;;;;;;;5.25;3.00;;;;;11.99;62.65;100845.44;5079961;28;45275;-63
2023/11/07 10:11:56;;;;;;;;;4.00;1.25;;;;;12.06;62.78;100844.38;5078313;28;45375;-63
2023/11/07 10:14:22;;;;;;;;;5.25;2.50;;;;;12.07;63.12;100836.44;5062569;28;45369;-63
2023/11/07 10:16:56;;;;;;;;;5.75;3.00;;;;;12.07;62.22;100838.22;5057163;28;46352;-63
2023/11/07 10:19:23;;;;;;;;;6.25;3.25;;;;;12.07;62.53;100839.06;5073811;28;45915;-63
2023/11/07 10:21:49;;;;;;;;;4.50;2.25;;;;;12.09;62.44;100842.53;5082455;28;45343;-63
2023/11/07 10:24:15;;;;;;;;;2.50;2.00;;;;;12.12;62.25;100839.78;5064404;28;45466;-63
2023/11/07 10:26:51;;;;;;;;;6.00;3.00;;;;;12.16;61.45;100840.53;5077932;28;45891;-63
2023/11/07 10:29:25;;;;;;;;;4.00;3.00;;;;;12.22;60.94;100844.75;5067490;28;45733;-63
2023/11/07 10:32:07;;;;;;;;;4.25;3.75;;;;;12.26;61.82;100841.97;5071692;28;45537;-63
2023/11/07 10:34:32;;;;;;;;;6.00;3.00;;;;;12.33;62.23;100840.00;5080640;28;45390;-63
2023/11/07 10:37:01;;;;;;;;;3.75;3.00;;;;;12.45;60.87;100838.75;5076755;28;45302;-62
2023/11/07 10:39:27;;;;;;;;;7.25;2.75;;;;;12.89;61.76;100838.97;5062146;28;45785;-63
2023/11/07 10:41:54;;;;;;;;;5.25;3.00;;;;;13.57;60.66;100844.47;5075470;28;45320;-63
2023/11/07 10:44:25;;;;;;;;;4.25;2.25;;;;;13.90;60.60;100844.06;5055937;28;45262;-63
2023/11/07 10:46:57;;;;;;;;;3.75;3.00;;;;;14.31;57.94;100841.59;5062365;28;45321;-63
2023/11/07 10:49:24;;;;;;;;;3.50;1.75;;;;;14.50;58.50;100847.81;5066784;28;45333;-63
2023/11/07 10:51:49;;;;;;;;;3.00;2.00;;;;;14.55;58.12;100842.34;5051665;28;45266;-63
2023/11/07 10:54:19;;;;;;;;;4.50;3.00;;;;;14.37;57.96;100831.63;5080140;28;45365;-63
2023/11/07 10:56:45;;;;;;;;;2.00;2.00;;;;;14.22;58.28;100838.41;5082032;28;45342;-63
2023/11/07 10:59:22;;;;;;;;;1.75;1.25;;;;;14.06;57.91;100837.31;5068721;28;45855;-63
2023/11/07 11:01:52;;;;;;;;;3.00;2.50;;;;;13.97;57.39;100837.66;5071279;28;45571;-63
2023/11/07 11:04:22;;;;;;;;;2.00;2.00;;;;;13.90;57.63;100838.81;5063132;28;46504;-63
2023/11/07 11:07:08;;;;;;;;;3.50;0.75;;;;;13.78;58.45;100834.91;5071321;28;45480;-63
2023/11/07 11:09:35;;;;;;;;;3.00;2.00;;;;;13.70;57.13;100839.59;5069164;28;45482;-63
2023/11/07 11:12:04;;;;;;;;;2.50;2.25;;;;;13.55;57.39;100831.38;5055622;28;45506;-63
2023/11/07 11:14:29;;;;;;;;;3.00;2.00;;;;;13.49;58.49;100831.59;5043922;28;45481;-63
2023/11/07 11:17:17;;;;;;;;;5.50;2.75;;;;;13.44;58.67;100831.78;5061777;28;45301;-63
2023/11/07 11:20:00;;;;;;;;;4.75;2.00;;;;;13.40;57.73;100826.69;5056429;28;45811;-62
2023/11/07 11:22:29;;;;;;;;;4.00;2.00;;;;;13.36;58.55;100835.59;5043801;28;45314;-63